createdAt,value
2022-12-08T00:00:49.176Z,17.2
2022-12-08T00:01:56.444Z,16.6
2022-12-08T00:03:03.700Z,17.7
2022-12-08T00:04:10.594Z,16
2022-12-08T00:05:17.906Z,17.1
2022-12-08T00:06:30.289Z,15.7
2022-12-08T00:07:52.156Z,18.2
2022-12-08T00:09:04.419Z,15
2022-12-08T00:10:47.040Z,17.8
2022-12-08T00:11:32.006Z,17
2022-12-08T00:12:39.157Z,16.7
2022-12-08T00:13:46.329Z,16.9
2022-12-08T00:14:53.636Z,17
2022-12-08T00:16:00.541Z,15.9
2022-12-08T00:17:07.884Z,15.9
2022-12-08T00:18:14.877Z,17.3
2022-12-08T00:19:22.144Z,16.7
2022-12-08T00:20:29.077Z,16.5
2022-12-08T00:21:36.178Z,16.5
2022-12-08T00:22:43.350Z,17.8
2022-12-08T00:23:50.521Z,17.3
2022-12-08T00:24:57.614Z,18.3
2022-12-08T00:26:04.861Z,17.1
2022-12-08T00:27:12.021Z,16.8
2022-12-08T00:28:19.305Z,17.4
2022-12-08T00:29:26.649Z,16.4
2022-12-08T00:30:40.218Z,16.3
2022-12-08T00:31:47.172Z,16.4
2022-12-08T00:32:54.270Z,18.3
2022-12-08T00:34:01.381Z,18.5
2022-12-08T00:35:08.597Z,21.5
2022-12-08T00:36:15.717Z,19.9
2022-12-08T00:37:23.023Z,19
2022-12-08T00:38:30.333Z,17.7
2022-12-08T00:39:37.477Z,18.1
2022-12-08T00:40:44.769Z,17.9
2022-12-08T00:41:51.828Z,16.3
2022-12-08T00:43:04.073Z,16.5
2022-12-08T00:44:12.185Z,16.1
2022-12-08T00:45:19.365Z,15.5
2022-12-08T00:46:26.400Z,16.4
2022-12-08T00:47:33.635Z,14.7
2022-12-08T00:48:40.745Z,15.5
2022-12-08T00:49:47.773Z,15.4
2022-12-08T00:50:54.940Z,16.7
2022-12-08T00:52:02.669Z,15.9
2022-12-08T00:53:12.777Z,16.4
2022-12-08T00:54:19.860Z,16.6
2022-12-08T00:55:26.924Z,15.4
2022-12-08T00:56:34.073Z,16.5
2022-12-08T00:57:41.133Z,16.6
2022-12-08T00:58:48.257Z,17.2
2022-12-08T00:59:55.473Z,16.3
2022-12-08T01:01:02.701Z,16
2022-12-08T01:02:17.966Z,16.3
2022-12-08T01:03:24.962Z,16.1
2022-12-08T01:04:31.940Z,15.3
2022-12-08T01:05:39.068Z,17.2
2022-12-08T01:06:46.256Z,14.4
2022-12-08T01:07:53.412Z,16.5
2022-12-08T01:09:04.844Z,16
2022-12-08T01:10:11.729Z,15.5
2022-12-08T01:11:18.853Z,15.6
2022-12-08T01:12:25.802Z,14.4
2022-12-08T01:13:32.957Z,17
2022-12-08T01:14:40.168Z,15.9
2022-12-08T01:15:47.203Z,15.1
2022-12-08T01:16:54.761Z,14.3
2022-12-08T01:18:02.040Z,15.8
2022-12-08T01:19:09.647Z,15.7
2022-12-08T01:20:16.898Z,16.5
2022-12-08T01:21:23.814Z,15.2
2022-12-08T01:22:31.058Z,14.8
2022-12-08T01:23:38.145Z,17
2022-12-08T01:24:45.318Z,14.9
2022-12-08T01:25:52.425Z,14.6
2022-12-08T01:26:59.596Z,15.2
2022-12-08T01:28:06.884Z,14.9
2022-12-08T01:29:14.137Z,13.7
2022-12-08T01:30:21.021Z,15.6
2022-12-08T01:31:28.085Z,14.8
2022-12-08T01:32:35.124Z,15.3
2022-12-08T01:33:42.336Z,15.3
2022-12-08T01:34:49.561Z,16.1
2022-12-08T01:35:56.688Z,16.4
2022-12-08T01:37:06.552Z,15.7
2022-12-08T01:38:13.445Z,15
2022-12-08T01:39:20.606Z,14
2022-12-08T01:40:27.557Z,14.9
2022-12-08T01:41:34.717Z,17.2
2022-12-08T01:42:41.950Z,14.9
2022-12-08T01:43:49.137Z,17
2022-12-08T01:45:02.384Z,15.1
2022-12-08T01:46:17.201Z,13.6
2022-12-08T01:47:24.021Z,13.4
2022-12-08T01:48:31.184Z,14.7
2022-12-08T01:49:38.576Z,15.1
2022-12-08T01:50:45.505Z,14.4
2022-12-08T01:51:52.576Z,14.9
2022-12-08T01:52:59.783Z,15.9
2022-12-08T01:54:09.983Z,14.4
2022-12-08T01:55:17.172Z,14.7
2022-12-08T01:56:27.163Z,14.3
2022-12-08T01:57:39.365Z,16.5
2022-12-08T01:58:46.519Z,14.1
2022-12-08T01:59:53.649Z,14.7
2022-12-08T02:01:03.470Z,15.7
2022-12-08T02:02:10.664Z,15
2022-12-08T02:03:17.709Z,14
2022-12-08T02:04:24.907Z,13.4
2022-12-08T02:05:32.077Z,14.8
2022-12-08T02:06:39.025Z,14.9
2022-12-08T02:07:46.254Z,13.5
2022-12-08T02:08:53.333Z,14.3
2022-12-08T02:10:00.685Z,13.1
2022-12-08T02:11:07.645Z,13.8
2022-12-08T02:12:14.740Z,14.9
2022-12-08T02:13:21.882Z,14.4
2022-12-08T02:14:28.924Z,14.5
2022-12-08T02:15:36.074Z,13.4
2022-12-08T02:16:50.920Z,14.9
2022-12-08T02:18:03.096Z,14.9
2022-12-08T02:19:33.762Z,14.8
2022-12-08T02:20:33.460Z,12.8
2022-12-08T02:21:50.891Z,15.6
2022-12-08T02:23:05.693Z,15.1
2022-12-08T02:24:23.085Z,17.6
2022-12-08T02:25:30.188Z,13.8
2022-12-08T02:26:43.264Z,14.9
2022-12-08T02:27:56.516Z,14.1
2022-12-08T02:29:11.865Z,13.4
2022-12-08T02:30:27.001Z,14.2
2022-12-08T02:31:41.809Z,16
2022-12-08T02:32:59.640Z,14.5
2022-12-08T02:34:11.856Z,14.5
2022-12-08T02:35:19.005Z,14.7
2022-12-08T02:36:34.144Z,13.6
2022-12-08T02:37:51.560Z,14.9
2022-12-08T02:39:06.348Z,15.4
2022-12-08T02:40:18.572Z,14.6
2022-12-08T02:41:28.652Z,14.2
2022-12-08T02:42:40.893Z,14.8
2022-12-08T02:43:48.097Z,14.4
2022-12-08T02:44:58.353Z,14
2022-12-08T02:46:10.459Z,14.2
2022-12-08T02:47:20.161Z,13.9
2022-12-08T02:48:27.258Z,14.2
2022-12-08T02:49:34.307Z,12.8
2022-12-08T02:50:41.430Z,13.4
2022-12-08T02:51:48.503Z,13.8
2022-12-08T02:52:55.660Z,13.3
2022-12-08T02:54:02.872Z,14.7
2022-12-08T02:55:10.187Z,14.8
2022-12-08T02:56:22.269Z,12.8
2022-12-08T02:57:34.298Z,14.3
2022-12-08T02:58:41.446Z,14.5
2022-12-08T02:59:56.765Z,13.3
2022-12-08T03:01:09.188Z,13.8
2022-12-08T03:02:21.363Z,14.1
2022-12-08T03:03:33.317Z,13
2022-12-08T03:04:48.109Z,14.6
2022-12-08T03:06:00.316Z,15.1
2022-12-08T03:07:10.173Z,15.9
2022-12-08T03:08:23.414Z,14.5
2022-12-08T03:09:33.385Z,15.5
2022-12-08T03:10:40.652Z,14.2
2022-12-08T03:11:52.808Z,15.1
2022-12-08T03:12:59.977Z,14.7
2022-12-08T03:14:17.192Z,16.5
2022-12-08T03:15:24.186Z,15.6
2022-12-08T03:16:31.440Z,15.4
2022-12-08T03:17:38.589Z,16.3
2022-12-08T03:18:45.632Z,14.9
2022-12-08T03:19:52.762Z,14.6
2022-12-08T03:20:59.893Z,14
2022-12-08T03:22:07.117Z,14.3
2022-12-08T03:23:14.221Z,13.1
2022-12-08T03:24:21.451Z,15.3
2022-12-08T03:25:28.412Z,14
2022-12-08T03:26:35.546Z,15
2022-12-08T03:27:42.815Z,14.7
2022-12-08T03:28:49.900Z,17.3
2022-12-08T03:29:57.048Z,13.6
2022-12-08T03:31:04.220Z,14.4
2022-12-08T03:32:11.320Z,14.3
2022-12-08T03:33:26.913Z,13.3
2022-12-08T03:34:34.125Z,13.5
2022-12-08T03:35:42.216Z,14.3
2022-12-08T03:36:49.477Z,14.9
2022-12-08T03:37:56.641Z,13.5
2022-12-08T03:39:08.981Z,13.2
2022-12-08T03:40:16.764Z,13.5
2022-12-08T03:41:23.748Z,13.5
2022-12-08T03:42:30.684Z,14
2022-12-08T03:43:37.824Z,13
2022-12-08T03:44:45.042Z,14.4
2022-12-08T03:45:52.399Z,15.7
2022-12-08T03:46:59.541Z,14.4
2022-12-08T03:48:06.469Z,13.8
2022-12-08T03:49:13.608Z,14.5
2022-12-08T03:50:20.779Z,14.3
2022-12-08T03:51:27.808Z,15.9
2022-12-08T03:52:34.929Z,14.1
2022-12-08T03:53:42.065Z,15.3
2022-12-08T03:54:50.096Z,15
2022-12-08T03:55:57.376Z,13.2
2022-12-08T03:57:04.484Z,14.7
2022-12-08T03:58:11.700Z,13.8
2022-12-08T03:59:18.941Z,12.8
2022-12-08T04:00:25.836Z,14.7
2022-12-08T04:01:33.100Z,14.2
2022-12-08T04:02:40.169Z,15.6
2022-12-08T04:03:47.281Z,13.8
2022-12-08T04:04:54.500Z,14.1
2022-12-08T04:06:01.664Z,14.6
2022-12-08T04:07:08.809Z,14.5
2022-12-08T04:08:16.029Z,14.7
2022-12-08T04:09:23.132Z,13.9
2022-12-08T04:10:30.063Z,14.1
2022-12-08T04:11:37.211Z,13.4
2022-12-08T04:12:45.495Z,15.2
2022-12-08T04:13:52.586Z,14.6
2022-12-08T04:14:59.752Z,13.5
2022-12-08T04:16:06.962Z,14.5
2022-12-08T04:17:19.119Z,14.7
2022-12-08T04:18:26.101Z,16.2
2022-12-08T04:19:33.197Z,15
2022-12-08T04:20:40.411Z,15.5
2022-12-08T04:21:47.530Z,14.8
2022-12-08T04:22:54.895Z,16.3
2022-12-08T04:24:01.839Z,15.3
2022-12-08T04:25:08.983Z,18.7
2022-12-08T04:26:16.127Z,16.9
2022-12-08T04:27:23.322Z,16.4
2022-12-08T04:28:30.426Z,18.3
2022-12-08T04:29:37.811Z,18.7
2022-12-08T04:30:45.002Z,18
2022-12-08T04:31:52.288Z,18.6
2022-12-08T04:32:59.299Z,19.6
2022-12-08T04:34:06.523Z,16.4
2022-12-08T04:35:14.522Z,20
2022-12-08T04:36:21.844Z,17.8
2022-12-08T04:37:28.812Z,18.3
2022-12-08T04:38:35.833Z,17.3
2022-12-08T04:39:43.087Z,16.6
2022-12-08T04:40:50.188Z,17.4
2022-12-08T04:41:57.479Z,17
2022-12-08T04:43:04.697Z,17.2
2022-12-08T04:44:11.774Z,18.1
2022-12-08T04:45:18.847Z,16.8
2022-12-08T04:46:25.809Z,15.3
2022-12-08T04:47:33.009Z,16.5
2022-12-08T04:48:40.237Z,15.2
2022-12-08T04:49:47.383Z,17.5
2022-12-08T04:50:54.339Z,14.7
2022-12-08T04:52:01.618Z,15.7
2022-12-08T04:53:08.774Z,16.9
2022-12-08T04:54:21.351Z,15.3
2022-12-08T04:55:28.544Z,18.3
2022-12-08T04:56:35.762Z,18.9
2022-12-08T04:57:43.453Z,17.7
2022-12-08T04:58:50.774Z,19.2
2022-12-08T04:59:57.779Z,20.8
2022-12-08T05:01:04.874Z,21.2
2022-12-08T05:02:12.123Z,19.3
2022-12-08T05:03:22.628Z,21.5
2022-12-08T05:04:26.131Z,20.2
2022-12-08T05:05:33.415Z,22.1
2022-12-08T05:06:41.338Z,19.5
2022-12-08T05:07:49.394Z,19.6
2022-12-08T05:08:56.811Z,20.4
2022-12-08T05:10:04.594Z,22.2
2022-12-08T05:11:11.752Z,21.6
2022-12-08T05:12:18.766Z,23.8
2022-12-08T05:13:25.886Z,24.5
2022-12-08T05:14:32.883Z,23.5
2022-12-08T05:15:40.010Z,23.8
2022-12-08T05:16:47.300Z,23.6
2022-12-08T05:17:54.490Z,20.7
2022-12-08T05:19:01.596Z,21.7
2022-12-08T05:20:08.674Z,18.9
2022-12-08T05:21:15.876Z,20.2
2022-12-08T05:22:22.951Z,17.5
2022-12-08T05:23:29.914Z,19.3
2022-12-08T05:24:38.045Z,19.3
2022-12-08T05:25:44.462Z,19.7
2022-12-08T05:26:51.462Z,17.1
2022-12-08T05:28:17.933Z,17.9
2022-12-08T05:29:05.775Z,17.3
2022-12-08T05:30:12.887Z,18.7
2022-12-08T05:31:20.145Z,15.4
2022-12-08T05:32:27.762Z,18.9
2022-12-08T05:33:34.670Z,16.8
2022-12-08T05:34:41.790Z,17.7
2022-12-08T05:35:48.932Z,18.2
2022-12-08T05:36:56.084Z,16.7
2022-12-08T05:38:03.266Z,18.7
2022-12-08T05:39:10.370Z,15.8
2022-12-08T05:40:17.610Z,17.9
2022-12-08T05:41:24.706Z,16.7
2022-12-08T05:42:31.610Z,16.6
2022-12-08T05:43:38.774Z,18.5
2022-12-08T05:44:45.887Z,16.8
2022-12-08T05:45:53.118Z,15.4
2022-12-08T05:47:00.358Z,17.2
2022-12-08T05:48:07.338Z,16.3
2022-12-08T05:49:14.471Z,16.3
2022-12-08T05:50:21.672Z,17.8
2022-12-08T05:51:28.731Z,16.2
2022-12-08T05:52:35.850Z,18.7
2022-12-08T05:53:42.982Z,16.7
2022-12-08T05:54:50.226Z,17.1
2022-12-08T05:55:57.310Z,18
2022-12-08T05:57:04.524Z,16.2
2022-12-08T05:58:11.710Z,17.2
2022-12-08T05:59:18.991Z,17.1
2022-12-08T06:00:26.390Z,15.7
2022-12-08T06:01:33.583Z,15.7
2022-12-08T06:02:40.974Z,16.5
2022-12-08T06:03:48.054Z,17.9
2022-12-08T06:04:54.943Z,16.5
2022-12-08T06:06:02.261Z,16.6
2022-12-08T06:07:14.619Z,16.9
2022-12-08T06:08:16.891Z,18
2022-12-08T06:09:24.073Z,19.5
2022-12-08T06:10:31.002Z,16.3
2022-12-08T06:11:38.626Z,18.5
2022-12-08T06:12:45.818Z,19.7
2022-12-08T06:13:53.223Z,19
2022-12-08T06:15:00.170Z,19.4
2022-12-08T06:16:07.387Z,21.7
2022-12-08T06:17:14.415Z,19.4
2022-12-08T06:18:21.606Z,18.2
2022-12-08T06:19:28.534Z,20
2022-12-08T06:20:35.759Z,18.7
2022-12-08T06:21:42.953Z,21.2
2022-12-08T06:22:50.862Z,19.1
2022-12-08T06:23:57.733Z,19.1
2022-12-08T06:25:07.250Z,20.6
2022-12-08T06:26:12.011Z,21
2022-12-08T06:27:19.291Z,19.8
2022-12-08T06:28:26.377Z,24.1
2022-12-08T06:29:33.391Z,20.8
2022-12-08T06:30:40.560Z,20.7
2022-12-08T06:31:47.961Z,19.3
2022-12-08T06:32:55.386Z,21.1
2022-12-08T06:34:02.573Z,22.3
2022-12-08T06:35:09.673Z,20.9
2022-12-08T06:36:16.757Z,19.7
2022-12-08T06:37:23.961Z,19.7
2022-12-08T06:38:30.975Z,18.4
2022-12-08T06:39:39.064Z,18.9
2022-12-08T06:40:46.402Z,17.3
2022-12-08T06:41:58.539Z,16.9
2022-12-08T06:43:10.799Z,18
2022-12-08T06:44:17.971Z,18.7
2022-12-08T06:45:25.515Z,19
2022-12-08T06:46:34.409Z,19.1
2022-12-08T06:47:41.275Z,20.7
2022-12-08T06:48:48.495Z,19
2022-12-08T06:49:55.586Z,19.1
2022-12-08T06:51:03.702Z,18.1
2022-12-08T06:52:14.067Z,18.5
2022-12-08T06:53:21.230Z,17.7
2022-12-08T06:54:28.139Z,18.4
2022-12-08T06:55:57.669Z,18.1
2022-12-08T06:56:48.543Z,17.7
2022-12-08T06:57:57.113Z,17.1
2022-12-08T06:59:02.962Z,20
2022-12-08T07:00:10.039Z,19.4
2022-12-08T07:01:17.821Z,19
2022-12-08T07:02:24.923Z,17.6
2022-12-08T07:03:31.850Z,18.7
2022-12-08T07:04:39.203Z,20.2
2022-12-08T07:05:46.262Z,17.7
2022-12-08T07:06:53.423Z,17.3
2022-12-08T07:08:00.520Z,17
2022-12-08T07:09:08.068Z,16.3
2022-12-08T07:10:15.375Z,16.6
2022-12-08T07:11:22.856Z,18.5
2022-12-08T07:12:29.720Z,18.1
2022-12-08T07:13:37.559Z,17.8
2022-12-08T07:14:44.855Z,20.9
2022-12-08T07:15:51.894Z,17.5
2022-12-08T07:16:59.212Z,17.8
2022-12-08T07:18:06.346Z,17.6
2022-12-08T07:19:14.447Z,19.1
2022-12-08T07:20:21.784Z,20.4
2022-12-08T07:21:28.667Z,18.5
2022-12-08T07:22:35.835Z,20
2022-12-08T07:23:42.925Z,16.4
2022-12-08T07:24:50.102Z,18.3
2022-12-08T07:25:57.547Z,20.5
2022-12-08T07:27:07.442Z,20.4
2022-12-08T07:28:14.623Z,21
2022-12-08T07:29:26.160Z,19.6
2022-12-08T07:30:28.787Z,17.6
2022-12-08T07:31:35.880Z,23.2
2022-12-08T07:32:43.045Z,21.3
2022-12-08T07:33:50.235Z,19.8
2022-12-08T07:34:57.462Z,19.5
2022-12-08T07:36:04.506Z,19.8
2022-12-08T07:37:11.655Z,21.2
2022-12-08T07:38:18.855Z,22.5
2022-12-08T07:39:25.955Z,21.3
2022-12-08T07:40:33.172Z,23.8
2022-12-08T07:41:40.135Z,22.9
2022-12-08T07:42:47.264Z,21.4
2022-12-08T07:43:54.424Z,22
2022-12-08T07:45:01.546Z,21.6
2022-12-08T07:46:08.774Z,19.3
2022-12-08T07:47:18.463Z,22
2022-12-08T07:48:25.592Z,21.9
2022-12-08T07:49:32.722Z,20.6
2022-12-08T07:50:39.699Z,20
2022-12-08T07:51:46.835Z,19.8
2022-12-08T07:52:53.926Z,23.2
2022-12-08T07:54:01.162Z,22.5
2022-12-08T07:55:08.406Z,25.3
2022-12-08T07:56:15.618Z,22.3
2022-12-08T07:57:22.582Z,21.1
2022-12-08T07:58:31.744Z,23
2022-12-08T07:59:40.266Z,20
2022-12-08T08:00:47.480Z,21.3
2022-12-08T08:02:13.381Z,20.7
2022-12-08T08:03:01.806Z,23.8
2022-12-08T08:04:09.031Z,23.1
2022-12-08T08:05:16.100Z,24.2
2022-12-08T08:06:23.261Z,25.5
2022-12-08T08:07:30.187Z,22.9
2022-12-08T08:08:37.378Z,24.3
2022-12-08T08:09:44.570Z,23.2
2022-12-08T08:10:51.935Z,26.2
2022-12-08T08:12:22.606Z,23.6
2022-12-08T08:13:06.131Z,22.3
2022-12-08T08:14:13.131Z,22.9
2022-12-08T08:15:20.250Z,23.7
2022-12-08T08:16:28.030Z,23.2
2022-12-08T08:17:34.750Z,24.7
2022-12-08T08:18:41.526Z,20.4
2022-12-08T08:19:50.030Z,23.8
2022-12-08T08:21:06.582Z,23.4
2022-12-08T08:22:05.586Z,21.1
2022-12-08T08:23:12.830Z,21
2022-12-08T08:24:19.966Z,23.3
2022-12-08T08:25:27.180Z,23.6
2022-12-08T08:26:34.082Z,23
2022-12-08T08:27:41.269Z,25.3
2022-12-08T08:28:48.443Z,22.3
2022-12-08T08:29:55.539Z,24.3
2022-12-08T08:31:02.873Z,22.1
2022-12-08T08:32:09.911Z,24.8
2022-12-08T08:33:16.944Z,25.1
2022-12-08T08:34:24.199Z,26.3
2022-12-08T08:35:31.118Z,25.3
2022-12-08T08:36:38.312Z,24.8
2022-12-08T08:37:48.738Z,26.3
2022-12-08T08:38:52.694Z,22.8
2022-12-08T08:39:59.734Z,25.7
2022-12-08T08:41:06.846Z,24.9
2022-12-08T08:42:13.996Z,24
2022-12-08T08:43:21.173Z,27.5
2022-12-08T08:44:33.260Z,24.4
2022-12-08T08:45:40.310Z,22.5
2022-12-08T08:46:47.651Z,25.5
2022-12-08T08:47:54.670Z,26.5
2022-12-08T08:49:01.782Z,24.1
2022-12-08T08:50:09.064Z,25
2022-12-08T08:51:16.055Z,23.8
2022-12-08T08:52:23.358Z,23.8
2022-12-08T08:53:30.290Z,22.5
2022-12-08T08:54:37.471Z,24.4
2022-12-08T08:55:44.527Z,23.6
2022-12-08T08:56:51.703Z,22.7
2022-12-08T08:57:58.899Z,22.5
2022-12-08T08:59:06.059Z,22.8
2022-12-08T09:00:13.274Z,23.9
2022-12-08T09:01:20.555Z,22.8
2022-12-08T09:02:28.766Z,21.1
2022-12-08T09:03:35.963Z,23
2022-12-08T09:04:43.147Z,21.8
2022-12-08T09:05:50.323Z,20.5
2022-12-08T09:06:57.507Z,21.6
2022-12-08T09:08:05.776Z,23.1
2022-12-08T09:09:12.758Z,22.4
2022-12-08T09:10:20.014Z,22
2022-12-08T09:11:27.155Z,19.9
2022-12-08T09:12:34.080Z,18.7
2022-12-08T09:13:41.214Z,19.2
2022-12-08T09:14:48.477Z,20.9
2022-12-08T09:15:55.657Z,21.1
2022-12-08T09:17:06.114Z,19.9
2022-12-08T09:18:13.059Z,21.4
2022-12-08T09:19:20.106Z,18.3
2022-12-08T09:20:27.334Z,21.4
2022-12-08T09:21:34.232Z,21.2
2022-12-08T09:22:41.352Z,21.9
2022-12-08T09:23:48.822Z,22.7
2022-12-08T09:24:55.672Z,23.5
2022-12-08T09:26:02.823Z,21.4
2022-12-08T09:27:10.007Z,23.2
2022-12-08T09:28:17.110Z,22.6
2022-12-08T09:29:24.334Z,21.6
2022-12-08T09:30:31.262Z,21.5
2022-12-08T09:31:38.446Z,22.8
2022-12-08T09:32:45.444Z,26
2022-12-08T09:33:52.724Z,24.2
2022-12-08T09:34:59.790Z,22.9
2022-12-08T09:36:07.061Z,20.4
2022-12-08T09:37:14.119Z,23.4
2022-12-08T09:38:21.490Z,20
2022-12-08T09:39:28.466Z,23.2
2022-12-08T09:40:35.386Z,21.6
2022-12-08T09:41:50.305Z,23.6
2022-12-08T09:43:03.011Z,23.1
2022-12-08T09:44:13.257Z,18.2
2022-12-08T09:45:30.935Z,22.9
2022-12-08T09:46:38.028Z,19
2022-12-08T09:47:45.173Z,22.1
2022-12-08T09:49:00.167Z,21
2022-12-08T09:50:07.849Z,22.6
2022-12-08T09:51:17.472Z,22.4
2022-12-08T09:52:24.672Z,25.3
2022-12-08T09:53:35.441Z,22.2
2022-12-08T09:54:43.816Z,24
2022-12-08T09:55:51.207Z,25.7
2022-12-08T09:57:03.717Z,22
2022-12-08T09:58:10.983Z,24.7
2022-12-08T09:59:26.138Z,26.1
2022-12-08T10:00:36.266Z,24.6
2022-12-08T10:01:43.428Z,26.4
2022-12-08T10:02:50.601Z,27.9
2022-12-08T10:03:57.755Z,25.8
2022-12-08T10:05:04.926Z,27
2022-12-08T10:06:12.090Z,28
2022-12-08T10:07:29.471Z,25.5
2022-12-08T10:08:41.989Z,27.5
2022-12-08T10:09:49.146Z,26.6
2022-12-08T10:11:06.517Z,26.8
2022-12-08T10:12:19.752Z,27.2
2022-12-08T10:13:34.324Z,28
2022-12-08T10:14:41.431Z,25.3
2022-12-08T10:15:58.992Z,30.2
2022-12-08T10:17:16.279Z,26.5
2022-12-08T10:18:23.301Z,24
2022-12-08T10:19:30.258Z,24.9
2022-12-08T10:20:37.518Z,22.7
2022-12-08T10:21:44.671Z,27
2022-12-08T10:22:51.763Z,26.5
2022-12-08T10:23:58.847Z,27
2022-12-08T10:25:06.073Z,25.9
2022-12-08T10:26:20.821Z,27.8
2022-12-08T10:27:28.056Z,27.6
2022-12-08T10:28:38.881Z,25.3
2022-12-08T10:29:42.565Z,28
2022-12-08T10:30:49.843Z,24.2
2022-12-08T10:31:57.129Z,21
2022-12-08T10:33:04.128Z,21.1
2022-12-08T10:34:19.692Z,22.4
2022-12-08T10:35:26.674Z,24.3
2022-12-08T10:36:44.183Z,24.3
2022-12-08T10:37:53.935Z,26.5
2022-12-08T10:39:01.050Z,24.6
2022-12-08T10:40:08.499Z,20.8
2022-12-08T10:41:15.491Z,18.4
2022-12-08T10:42:22.665Z,19.8
2022-12-08T10:43:29.626Z,16.9
2022-12-08T10:44:36.645Z,20.5
2022-12-08T10:45:43.858Z,20.6
2022-12-08T10:46:51.004Z,21.1
2022-12-08T10:47:58.277Z,21.3
2022-12-08T10:49:05.374Z,24
2022-12-08T10:50:12.397Z,22.2
2022-12-08T10:51:24.902Z,23.7
2022-12-08T10:52:32.075Z,21.9
2022-12-08T10:53:41.861Z,21.1
2022-12-08T10:54:48.955Z,23.9
2022-12-08T10:55:56.098Z,21.1
2022-12-08T10:57:06.329Z,20.8
2022-12-08T10:58:13.565Z,24
2022-12-08T10:59:25.748Z,24
2022-12-08T11:00:32.889Z,24
2022-12-08T11:01:40.308Z,25.4
2022-12-08T11:02:50.215Z,22.6
2022-12-08T11:03:59.806Z,21.5
2022-12-08T11:05:07.131Z,20.7
2022-12-08T11:06:14.186Z,20.2
2022-12-08T11:07:21.210Z,18.8
2022-12-08T11:08:28.476Z,21.3
2022-12-08T11:09:35.328Z,18.7
2022-12-08T11:10:47.572Z,17.9
2022-12-08T11:11:54.709Z,18.1
2022-12-08T11:13:06.997Z,19.4
2022-12-08T11:14:19.290Z,19.9
2022-12-08T11:15:32.442Z,20.4
2022-12-08T11:16:39.618Z,18.9
2022-12-08T11:17:46.623Z,20.1
2022-12-08T11:18:53.838Z,20.9
2022-12-08T11:20:01.005Z,21.1
2022-12-08T11:21:13.274Z,19.7
2022-12-08T11:22:20.327Z,18.7
2022-12-08T11:23:30.008Z,18
2022-12-08T11:24:37.765Z,20.9
2022-12-08T11:25:44.214Z,21
2022-12-08T11:26:51.283Z,17.6
2022-12-08T11:27:58.394Z,21.7
2022-12-08T11:29:05.577Z,18.9
2022-12-08T11:30:15.589Z,18.2
2022-12-08T11:31:27.620Z,19.4
2022-12-08T11:32:34.464Z,16.8
2022-12-08T11:33:41.646Z,17.8
2022-12-08T11:34:48.772Z,16.6
2022-12-08T11:35:59.011Z,18.8
2022-12-08T11:37:08.684Z,17.7
2022-12-08T11:38:22.237Z,18.7
2022-12-08T11:39:25.574Z,17.7
2022-12-08T11:40:32.638Z,17.3
2022-12-08T11:41:39.674Z,18.1
2022-12-08T11:42:46.780Z,18.8
2022-12-08T11:43:56.538Z,19.4
2022-12-08T11:45:07.145Z,18.4
2022-12-08T11:46:16.474Z,17.3
2022-12-08T11:47:26.173Z,18.3
2022-12-08T11:48:38.785Z,17.9
2022-12-08T11:49:48.609Z,18
2022-12-08T11:50:55.557Z,19.6
2022-12-08T11:52:02.791Z,17.9
2022-12-08T11:53:15.025Z,17.5
2022-12-08T11:54:32.614Z,17.7
2022-12-08T11:55:41.711Z,17.8
2022-12-08T11:56:47.068Z,20.2
2022-12-08T11:57:59.661Z,21.9
2022-12-08T11:59:18.030Z,21.5
2022-12-08T12:00:33.122Z,20.5
2022-12-08T12:01:42.623Z,21.6
2022-12-08T12:02:47.649Z,21.7
2022-12-08T12:03:54.518Z,24.1
2022-12-08T12:05:09.881Z,23.1
2022-12-08T12:07:42.338Z,18
2022-12-08T12:08:54.883Z,19
2022-12-08T12:10:09.711Z,18.8
2022-12-08T12:11:27.213Z,19.3
2022-12-08T12:12:47.391Z,19.4
2022-12-08T12:14:04.773Z,19.9
2022-12-08T12:15:18.378Z,20.5
2022-12-08T12:16:30.667Z,17.5
2022-12-08T12:17:48.937Z,19.7
2022-12-08T12:18:56.169Z,19.4
2022-12-08T12:20:04.546Z,19
2022-12-08T12:21:16.693Z,17.6
2022-12-08T12:22:29.624Z,16.7
2022-12-08T12:23:36.738Z,15.7
2022-12-08T12:24:46.551Z,18.7
2022-12-08T12:25:53.708Z,18.8
2022-12-08T12:27:03.420Z,17.1
2022-12-08T12:28:10.573Z,17
2022-12-08T12:29:17.721Z,17.9
2022-12-08T12:30:24.908Z,17.3
2022-12-08T12:31:31.829Z,18.7
2022-12-08T12:32:43.136Z,17.7
2022-12-08T12:33:50.197Z,19
2022-12-08T12:34:57.378Z,19.5
2022-12-08T12:36:04.457Z,18.1
2022-12-08T12:37:12.184Z,17.4
2022-12-08T12:38:27.644Z,17.4
2022-12-08T12:39:40.048Z,16.3
2022-12-08T12:40:54.872Z,18.8
2022-12-08T12:42:01.981Z,18.1
2022-12-08T12:43:09.172Z,17.6
2022-12-08T12:44:16.550Z,18.5
2022-12-08T12:45:23.552Z,21.2
2022-12-08T12:46:30.703Z,19.3
2022-12-08T12:47:40.124Z,21
2022-12-08T12:48:53.093Z,22.9
2022-12-08T12:50:00.096Z,22
2022-12-08T12:51:10.878Z,22.1
2022-12-08T12:52:26.173Z,21.6
2022-12-08T12:53:36.157Z,21.1
2022-12-08T12:54:43.266Z,22.2
2022-12-08T12:55:53.009Z,22.3
2022-12-08T12:57:00.277Z,21.8
2022-12-08T12:58:07.281Z,21.4
2022-12-08T12:59:24.573Z,20.4
2022-12-08T13:00:39.721Z,20.8
2022-12-08T13:01:47.091Z,21.8
2022-12-08T13:02:54.136Z,23.8
2022-12-08T13:04:02.037Z,27.5
2022-12-08T13:05:12.127Z,25.5
2022-12-08T13:06:22.216Z,26.7
2022-12-08T13:07:37.783Z,26.5
2022-12-08T13:08:52.747Z,26.8
2022-12-08T13:09:59.789Z,25
2022-12-08T13:11:18.116Z,24.8
2022-12-08T13:12:25.376Z,25.2
2022-12-08T13:13:32.232Z,27.4
2022-12-08T13:14:39.407Z,28.2
2022-12-08T13:15:49.140Z,25.8
2022-12-08T13:16:59.340Z,28.1
2022-12-08T13:18:06.634Z,26.2
2022-12-08T13:19:19.068Z,28.4
2022-12-08T13:20:26.354Z,27.9
2022-12-08T13:21:33.488Z,29.4
2022-12-08T13:22:42.161Z,31.9
2022-12-08T13:23:57.390Z,28.6
2022-12-08T13:25:14.648Z,31.4
2022-12-08T13:26:32.216Z,30.1
2022-12-08T13:27:49.716Z,30.9
2022-12-08T13:28:57.028Z,28.8
2022-12-08T13:30:09.123Z,29.1
2022-12-08T13:31:26.580Z,27.1
2022-12-08T13:33:16.550Z,23.9
2022-12-08T13:33:59.429Z,21.9
2022-12-08T13:35:14.793Z,24.6
2022-12-08T13:36:21.820Z,23.7
2022-12-08T13:37:28.997Z,25.7
2022-12-08T13:38:35.894Z,23.9
2022-12-08T13:39:43.136Z,23.2
2022-12-08T13:40:50.267Z,24.1
2022-12-08T13:41:57.569Z,22.9
2022-12-08T13:43:09.708Z,21.1
2022-12-08T13:46:26.448Z,22.6
2022-12-08T13:47:09.709Z,22.7
2022-12-08T13:48:20.790Z,22.1
2022-12-08T13:50:42.917Z,23.6
2022-12-08T13:52:37.306Z,28.5
2022-12-08T13:54:42.826Z,29.9
2022-12-08T13:56:51.986Z,28.9
2022-12-08T13:57:10.964Z,33.4
2022-12-08T13:58:13.900Z,31.5
2022-12-08T13:59:21.153Z,29.7
2022-12-08T14:00:33.750Z,25.2
2022-12-08T14:01:40.831Z,25
2022-12-08T14:02:48.734Z,29.1
2022-12-08T14:05:17.835Z,24.4
2022-12-08T14:06:12.496Z,24.4
2022-12-08T14:07:23.134Z,26.5
2022-12-08T14:08:58.247Z,24.9
2022-12-08T14:09:38.299Z,25.4
2022-12-08T14:10:45.572Z,28.2
2022-12-08T14:11:52.761Z,29.1
2022-12-08T14:12:59.835Z,29.1
2022-12-08T14:14:07.841Z,28.1
2022-12-08T14:15:19.073Z,24.6
2022-12-08T14:16:26.166Z,23.1
2022-12-08T14:17:37.944Z,22.6
2022-12-08T14:18:45.226Z,21.1
2022-12-08T14:19:52.232Z,22.4
2022-12-08T14:21:21.309Z,22.9
2022-12-08T14:22:15.241Z,20.6
2022-12-08T14:23:22.361Z,22.8
2022-12-08T14:24:29.530Z,21.5
2022-12-08T14:25:38.010Z,23.2
2022-12-08T14:26:46.717Z,23.6
2022-12-08T14:27:56.959Z,23.4
2022-12-08T14:29:04.171Z,24
2022-12-08T14:30:11.346Z,23.3
2022-12-08T14:31:23.596Z,25.2
2022-12-08T14:32:30.625Z,27
2022-12-08T14:33:40.781Z,26.6
2022-12-08T14:34:48.098Z,25.7
2022-12-08T14:36:03.090Z,27.6
2022-12-08T14:37:10.368Z,31.4
2022-12-08T14:38:18.500Z,29.6
2022-12-08T14:39:25.957Z,28.4
2022-12-08T14:40:34.344Z,28.5
2022-12-08T14:41:41.378Z,28.1
2022-12-08T14:42:48.460Z,29.9
2022-12-08T14:44:05.809Z,32.1
2022-12-08T14:45:24.041Z,31
2022-12-08T14:46:31.475Z,30.1
2022-12-08T14:47:38.385Z,36.3
2022-12-08T14:48:45.576Z,42.4
2022-12-08T14:49:52.634Z,39.5
2022-12-08T14:50:59.945Z,56.4
2022-12-08T14:52:06.938Z,44.8
2022-12-08T14:53:14.232Z,38.9
2022-12-08T14:54:21.353Z,40.7
2022-12-08T14:55:28.419Z,35
2022-12-08T14:56:38.458Z,35.1
2022-12-08T14:57:45.631Z,31
2022-12-08T14:58:53.361Z,27.9
2022-12-08T15:00:08.138Z,30.1
2022-12-08T15:01:14.852Z,28.9
2022-12-08T15:02:22.312Z,28.4
2022-12-08T15:03:29.721Z,27.7
2022-12-08T15:04:37.088Z,26.9
2022-12-08T15:05:49.066Z,27.8
2022-12-08T15:06:56.540Z,26.2
2022-12-08T15:08:08.942Z,26.9
2022-12-08T15:09:15.864Z,27.6
2022-12-08T15:10:32.445Z,26.1
2022-12-08T15:11:39.804Z,29
2022-12-08T15:12:47.022Z,26
2022-12-08T15:13:59.309Z,24.9
2022-12-08T15:15:06.461Z,26.9
2022-12-08T15:16:13.556Z,27.5
2022-12-08T15:17:31.381Z,27.1
2022-12-08T15:18:44.052Z,27.1
2022-12-08T15:19:51.296Z,26.6
2022-12-08T15:20:58.708Z,27.9
2022-12-08T15:22:05.884Z,28.9
2022-12-08T15:23:15.957Z,30.8
2022-12-08T15:24:31.764Z,29.7
2022-12-08T15:25:38.904Z,31.2
2022-12-08T15:26:46.068Z,33.6